Time;durP1;ratioP1;P1;durP2;ratioP2;P2;SDS_P1;SDS_P2;PMS_P1;PMS_P2;Temp;Humidity;BMP_temperature;BMP_pressure;BME280_temperature;BME280_humidity;BME280_pressure;Samples;Min_cycle;Max_cycle;Signal;HPM_P1;HPM_P2
2022/05/19 00:01:30;;;;;;;;;5.25;5.25;;;;;;;;5032638;28;45464;-67
2022/05/19 00:03:55;;;;;;;;;5.00;5.00;;;;;;;;5024735;28;45726;-68
2022/05/19 00:06:20;;;;;;;;;6.00;5.25;;;;;;;;5029005;28;47514;-68
2022/05/19 00:08:46;;;;;;;;;6.50;6.00;;;;;;;;5030490;28;45472;-67
2022/05/19 00:11:13;;;;;;;;;5.50;5.50;;;;;;;;5030262;28;45565;-67
2022/05/19 00:13:38;;;;;;;;;7.25;6.25;;;;;;;;5029009;28;45539;-67
2022/05/19 00:16:05;;;;;;;;;5.25;5.25;;;;;;;;5029150;28;45521;-67
2022/05/19 00:18:31;;;;;;;;;4.75;4.75;;;;;;;;5028967;28;45537;-66
2022/05/19 00:20:56;;;;;;;;;7.00;6.00;;;;;;;;5028867;28;45389;-66
2022/05/19 00:23:22;;;;;;;;;6.00;6.00;;;;;;;;5031365;28;45505;-67
2022/05/19 00:25:47;;;;;;;;;6.00;6.00;;;;;;;;5029230;28;46087;-66
2022/05/19 00:28:13;;;;;;;;;8.00;6.75;;;;;;;;5030336;28;45378;-66
2022/05/19 00:30:38;;;;;;;;;7.25;6.25;;;;;;;;5027288;28;45436;-67
2022/05/19 00:33:04;;;;;;;;;6.50;6.50;;;;;;;;5029063;28;45676;-67
2022/05/19 00:35:29;;;;;;;;;8.50;6.00;;;;;;;;5030255;28;48534;-67
2022/05/19 00:37:54;;;;;;;;;5.75;5.75;;;;;;;;5028449;28;45496;-67
2022/05/19 00:40:21;;;;;;;;;6.25;6.25;;;;;;;;5030762;28;45646;-66
2022/05/19 00:42:46;;;;;;;;;5.00;5.00;;;;;;;;5031070;28;45466;-67
2022/05/19 00:45:16;;;;;;;;;6.75;6.75;;;;;;;;5031635;28;46517;-67
2022/05/19 00:47:46;;;;;;;;;7.00;5.75;;;;;;;;5031125;28;45420;-67
2022/05/19 00:50:20;;;;;;;;;7.75;7.25;;;;;;;;5031192;28;45603;-68
2022/05/19 00:52:45;;;;;;;;;6.25;5.25;;;;;;;;5029841;28;45484;-67
2022/05/19 00:55:14;;;;;;;;;8.00;7.00;;;;;;;;5031127;28;46483;-68
2022/05/19 00:57:45;;;;;;;;;6.25;5.25;;;;;;;;5032565;28;45711;-67
2022/05/19 01:00:12;;;;;;;;;7.25;7.25;;;;;;;;5021729;28;45378;-67
2022/05/19 01:02:40;;;;;;;;;7.50;7.25;;;;;;;;5024861;28;45663;-67
2022/05/19 01:05:09;;;;;;;;;5.00;5.00;;;;;;;;5025142;28;45716;-66
2022/05/19 01:07:54;;;;;;;;;10.00;10.00;;;;;;;;5038690;28;46119;-66
2022/05/19 01:10:20;;;;;;;;;6.75;6.75;;;;;;;;5025340;28;45893;-65
2022/05/19 01:12:46;;;;;;;;;8.00;8.00;;;;;;;;5028225;28;45480;-66
2022/05/19 01:15:12;;;;;;;;;8.00;8.00;;;;;;;;5027623;28;48591;-66
2022/05/19 01:17:38;;;;;;;;;9.50;8.50;;;;;;;;5041421;28;45977;-66
2022/05/19 01:20:23;;;;;;;;;9.00;7.50;;;;;;;;5026761;28;45397;-65
2022/05/19 01:22:54;;;;;;;;;10.00;10.00;;;;;;;;5027228;28;45398;-66
2022/05/19 01:25:28;;;;;;;;;11.00;11.00;;;;;;;;5027094;28;45746;-65
2022/05/19 01:27:53;;;;;;;;;9.00;9.00;;;;;;;;5026411;28;45922;-66
2022/05/19 01:30:19;;;;;;;;;8.25;8.25;;;;;;;;5022801;28;46281;-66
2022/05/19 01:32:44;;;;;;;;;11.00;10.00;;;;;;;;5020806;28;45495;-65
2022/05/19 01:35:09;;;;;;;;;7.00;7.00;;;;;;;;5017179;28;47593;-65
2022/05/19 01:37:34;;;;;;;;;10.75;10.25;;;;;;;;5018803;28;45543;-65
2022/05/19 01:40:06;;;;;;;;;10.00;10.00;;;;;;;;5027343;28;45557;-65
2022/05/19 01:42:34;;;;;;;;;10.50;10.50;;;;;;;;5032786;28;45667;-66
2022/05/19 01:45:05;;;;;;;;;9.00;9.00;;;;;;;;5021563;28;46479;-67
2022/05/19 01:47:44;;;;;;;;;10.00;9.00;;;;;;;;5029686;28;45373;-65
2022/05/19 01:50:18;;;;;;;;;9.50;8.00;;;;;;;;5024852;28;45357;-66
2022/05/19 01:52:52;;;;;;;;;9.25;9.25;;;;;;;;5039562;28;45561;-66
2022/05/19 01:55:27;;;;;;;;;11.50;11.50;;;;;;;;5022000;28;46800;-67
2022/05/19 01:57:55;;;;;;;;;9.25;9.00;;;;;;;;5019286;28;45445;-66
2022/05/19 02:00:22;;;;;;;;;10.75;10.75;;;;;;;;5035197;28;45754;-66
2022/05/19 02:02:58;;;;;;;;;12.00;10.50;;;;;;;;5033071;28;45456;-66
2022/05/19 02:05:42;;;;;;;;;12.25;12.25;;;;;;;;5030361;28;46122;-66
2022/05/19 02:08:12;;;;;;;;;13.00;13.00;;;;;;;;5030169;28;45461;-67
2022/05/19 02:10:42;;;;;;;;;10.00;9.00;;;;;;;;5038226;28;45693;-66
2022/05/19 02:13:08;;;;;;;;;12.50;12.00;;;;;;;;5034660;28;45351;-66
2022/05/19 02:15:35;;;;;;;;;11.00;10.25;;;;;;;;5033130;28;48839;-66
2022/05/19 02:18:01;;;;;;;;;10.75;10.75;;;;;;;;5032595;28;45530;-66
2022/05/19 02:20:27;;;;;;;;;13.25;10.25;;;;;;;;5032897;28;45499;-67
2022/05/19 02:22:53;;;;;;;;;13.50;12.00;;;;;;;;5033167;28;45531;-66
2022/05/19 02:25:23;;;;;;;;;13.00;12.00;;;;;;;;5032753;28;45459;-66
2022/05/19 02:27:51;;;;;;;;;10.25;10.25;;;;;;;;5033119;28;46285;-66
2022/05/19 02:30:22;;;;;;;;;13.25;12.50;;;;;;;;5034826;28;45577;-66
2022/05/19 02:32:48;;;;;;;;;12.25;12.25;;;;;;;;5034771;28;45351;-66
2022/05/19 02:35:13;;;;;;;;;12.25;12.25;;;;;;;;5033923;28;46711;-66
2022/05/19 02:37:38;;;;;;;;;12.50;12.25;;;;;;;;5034147;28;45572;-66
2022/05/19 02:40:04;;;;;;;;;11.00;10.00;;;;;;;;5034154;28;45610;-66
2022/05/19 02:42:29;;;;;;;;;11.75;10.50;;;;;;;;5034281;28;45414;-66
2022/05/19 02:44:55;;;;;;;;;14.50;12.00;;;;;;;;5036148;28;46657;-66
2022/05/19 02:47:20;;;;;;;;;13.25;13.25;;;;;;;;5016345;28;45538;-66
2022/05/19 02:49:45;;;;;;;;;10.50;10.50;;;;;;;;5032622;28;45357;-66
2022/05/19 02:52:10;;;;;;;;;9.25;9.25;;;;;;;;5032485;28;47801;-65
2022/05/19 02:54:35;;;;;;;;;7.50;7.50;;;;;;;;5032124;28;46585;-66
2022/05/19 02:57:01;;;;;;;;;11.25;11.25;;;;;;;;5036399;28;45405;-66
2022/05/19 02:59:26;;;;;;;;;10.50;10.25;;;;;;;;5034065;28;45332;-66
2022/05/19 03:01:51;;;;;;;;;12.00;12.00;;;;;;;;5033750;28;45839;-65
2022/05/19 03:04:16;;;;;;;;;15.25;12.50;;;;;;;;5032665;28;47309;-65
2022/05/19 03:06:42;;;;;;;;;12.50;11.50;;;;;;;;5033871;28;45433;-66
2022/05/19 03:09:07;;;;;;;;;12.75;11.25;;;;;;;;5048350;28;45461;-66
2022/05/19 03:11:33;;;;;;;;;11.50;8.50;;;;;;;;5032834;28;45571;-66
2022/05/19 03:13:59;;;;;;;;;10.50;10.50;;;;;;;;5033451;28;46605;-65
2022/05/19 03:16:24;;;;;;;;;10.00;9.50;;;;;;;;5033474;28;45450;-65
2022/05/19 03:18:49;;;;;;;;;9.50;9.50;;;;;;;;5033865;28;45489;-68
2022/05/19 03:21:14;;;;;;;;;10.25;10.25;;;;;;;;5034164;28;45334;-67
2022/05/19 03:23:39;;;;;;;;;11.25;11.25;;;;;;;;5030762;28;45734;-66
2022/05/19 03:26:05;;;;;;;;;13.50;13.50;;;;;;;;5028618;28;45539;-65
2022/05/19 03:28:30;;;;;;;;;11.00;11.00;;;;;;;;5033530;28;45449;-65
2022/05/19 03:30:55;;;;;;;;;10.75;10.25;;;;;;;;5033302;28;45405;-65
2022/05/19 03:33:21;;;;;;;;;14.25;12.50;;;;;;;;5031997;28;49149;-64
2022/05/19 03:35:54;;;;;;;;;13.75;13.75;;;;;;;;5033638;28;45369;-65
2022/05/19 03:38:20;;;;;;;;;12.00;10.75;;;;;;;;5033421;28;45483;-64
2022/05/19 03:40:45;;;;;;;;;14.50;12.25;;;;;;;;5033093;28;45391;-65
2022/05/19 03:43:10;;;;;;;;;13.50;13.50;;;;;;;;5031693;28;45645;-65
2022/05/19 03:45:35;;;;;;;;;12.75;12.75;;;;;;;;5033251;28;45496;-64
2022/05/19 03:48:00;;;;;;;;;13.75;13.75;;;;;;;;5035249;28;45555;-66
2022/05/19 03:50:26;;;;;;;;;13.75;12.25;;;;;;;;5028533;28;45400;-66
2022/05/19 03:52:51;;;;;;;;;8.50;8.50;;;;;;;;5026487;28;45518;-66
2022/05/19 03:55:16;;;;;;;;;12.00;12.00;;;;;;;;5033168;28;45575;-66
2022/05/19 03:57:42;;;;;;;;;12.50;12.50;;;;;;;;5033348;28;45531;-66
2022/05/19 04:00:07;;;;;;;;;12.50;12.50;;;;;;;;5034681;28;45695;-66
2022/05/19 04:02:32;;;;;;;;;11.00;11.00;;;;;;;;5033261;28;46465;-66
2022/05/19 04:04:57;;;;;;;;;11.50;11.50;;;;;;;;5032634;28;45386;-66
2022/05/19 04:07:23;;;;;;;;;12.00;11.00;;;;;;;;5031932;28;45405;-66
2022/05/19 04:09:48;;;;;;;;;12.25;12.25;;;;;;;;5030369;28;45527;-66
2022/05/19 04:12:18;;;;;;;;;13.25;12.25;;;;;;;;5033785;28;46251;-66
2022/05/19 04:14:43;;;;;;;;;12.75;12.00;;;;;;;;5034485;28;45436;-66
2022/05/19 04:17:08;;;;;;;;;12.50;12.50;;;;;;;;5027962;28;45591;-66
2022/05/19 04:19:35;;;;;;;;;13.75;11.25;;;;;;;;5023800;28;45382;-67
2022/05/19 04:22:01;;;;;;;;;11.25;9.25;;;;;;;;5046443;28;48523;-66
2022/05/19 04:24:26;;;;;;;;;12.50;10.50;;;;;;;;5032752;28;45613;-66
2022/05/19 04:26:51;;;;;;;;;10.25;10.25;;;;;;;;5034776;28;45409;-67
2022/05/19 04:29:16;;;;;;;;;10.75;10.75;;;;;;;;5032619;28;45469;-66
2022/05/19 04:31:42;;;;;;;;;12.00;12.00;;;;;;;;5027882;28;49336;-66
2022/05/19 04:34:07;;;;;;;;;10.75;10.75;;;;;;;;5018844;28;45404;-66
2022/05/19 04:36:32;;;;;;;;;15.00;14.75;;;;;;;;5029512;28;45374;-66
2022/05/19 04:38:57;;;;;;;;;12.75;12.75;;;;;;;;5015098;28;45331;-66
2022/05/19 04:41:23;;;;;;;;;12.50;11.75;;;;;;;;5018564;28;46928;-66
2022/05/19 04:43:48;;;;;;;;;11.25;10.50;;;;;;;;5033943;28;45862;-66
2022/05/19 04:46:13;;;;;;;;;10.75;10.75;;;;;;;;5049049;28;45475;-66
2022/05/19 04:48:38;;;;;;;;;12.25;11.75;;;;;;;;5032285;28;45590;-66
2022/05/19 04:51:04;;;;;;;;;6.00;5.50;;;;;;;;5030501;28;45817;-66
2022/05/19 04:53:29;;;;;;;;;14.00;13.25;;;;;;;;5028674;28;46047;-68
2022/05/19 04:55:55;;;;;;;;;12.50;12.00;;;;;;;;5030465;28;45714;-66
2022/05/19 04:58:21;;;;;;;;;15.25;12.25;;;;;;;;5015327;28;45417;-67
2022/05/19 05:00:47;;;;;;;;;12.25;12.25;;;;;;;;5025434;28;45663;-67
2022/05/19 05:03:12;;;;;;;;;15.00;14.00;;;;;;;;5037180;28;45531;-66
2022/05/19 05:05:37;;;;;;;;;13.50;13.50;;;;;;;;5027618;28;45469;-66
2022/05/19 05:08:03;;;;;;;;;15.00;14.00;;;;;;;;5042171;28;45404;-66
2022/05/19 05:10:28;;;;;;;;;18.00;16.25;;;;;;;;5019492;28;47316;-66
2022/05/19 05:12:54;;;;;;;;;16.50;16.50;;;;;;;;5016226;28;45517;-66
2022/05/19 05:15:19;;;;;;;;;17.75;16.25;;;;;;;;5031732;28;45487;-66
2022/05/19 05:17:44;;;;;;;;;11.25;11.25;;;;;;;;5030970;28;45664;-68
2022/05/19 05:20:12;;;;;;;;;22.50;22.50;;;;;;;;5032059;28;48467;-66
2022/05/19 05:22:37;;;;;;;;;14.75;14.75;;;;;;;;5022048;28;45602;-67
2022/05/19 05:25:04;;;;;;;;;13.50;13.50;;;;;;;;5050728;28;45506;-66
2022/05/19 05:27:30;;;;;;;;;14.25;13.50;;;;;;;;5024903;28;45410;-67
2022/05/19 05:29:55;;;;;;;;;13.00;13.00;;;;;;;;5024492;28;45456;-68
2022/05/19 05:32:20;;;;;;;;;15.50;13.00;;;;;;;;5019797;28;45480;-66
2022/05/19 05:34:45;;;;;;;;;14.00;13.75;;;;;;;;5017673;28;45485;-68
2022/05/19 05:37:11;;;;;;;;;13.50;13.25;;;;;;;;5019582;28;45448;-67
2022/05/19 05:39:36;;;;;;;;;12.50;12.50;;;;;;;;5041641;28;48413;-68
2022/05/19 05:42:02;;;;;;;;;12.75;12.50;;;;;;;;5022263;28;45494;-68
2022/05/19 05:44:27;;;;;;;;;16.25;16.25;;;;;;;;5019378;28;45531;-68
2022/05/19 05:46:52;;;;;;;;;14.50;14.00;;;;;;;;5033673;28;46398;-68
2022/05/19 05:49:18;;;;;;;;;13.00;12.75;;;;;;;;5032620;28;46762;-67
2022/05/19 05:51:43;;;;;;;;;16.25;14.75;;;;;;;;5032123;28;45389;-67
2022/05/19 05:54:10;;;;;;;;;14.25;13.25;;;;;;;;5028525;28;45331;-67
2022/05/19 05:56:35;;;;;;;;;4.75;4.00;;;;;;;;5019705;28;45505;-67
2022/05/19 05:59:00;;;;;;;;;10.25;10.25;;;;;;;;5034928;28;46595;-67
2022/05/19 06:01:26;;;;;;;;;13.50;12.75;;;;;;;;5032476;28;45561;-67
2022/05/19 06:03:51;;;;;;;;;15.50;15.00;;;;;;;;5030261;28;45468;-67
2022/05/19 06:06:16;;;;;;;;;14.50;13.00;;;;;;;;5024188;28;45483;-67
2022/05/19 06:08:42;;;;;;;;;12.00;12.00;;;;;;;;5037607;28;48510;-67
2022/05/19 06:11:08;;;;;;;;;15.25;15.25;;;;;;;;5018436;28;45844;-67
2022/05/19 06:13:33;;;;;;;;;16.25;14.50;;;;;;;;5039677;28;45534;-67
2022/05/19 06:15:59;;;;;;;;;8.50;8.50;;;;;;;;5032788;28;45379;-66
2022/05/19 06:18:25;;;;;;;;;14.00;12.00;;;;;;;;5033012;28;46542;-66
2022/05/19 06:20:50;;;;;;;;;15.25;15.25;;;;;;;;5034425;28;45514;-66
2022/05/19 06:23:17;;;;;;;;;17.25;15.00;;;;;;;;5034400;28;45879;-66
2022/05/19 06:25:43;;;;;;;;;14.00;14.00;;;;;;;;5035832;28;45425;-67
2022/05/19 06:28:09;;;;;;;;;16.75;16.75;;;;;;;;5035422;28;45827;-66
2022/05/19 06:30:34;;;;;;;;;17.25;15.75;;;;;;;;5034248;28;45499;-66
2022/05/19 06:32:59;;;;;;;;;14.75;14.75;;;;;;;;5032893;28;45490;-66
2022/05/19 06:35:28;;;;;;;;;13.50;11.50;;;;;;;;5034457;28;45529;-67
2022/05/19 06:37:53;;;;;;;;;14.25;14.25;;;;;;;;5034090;28;46514;-66
2022/05/19 06:40:19;;;;;;;;;14.75;14.75;;;;;;;;5036109;28;45493;-66
2022/05/19 06:42:45;;;;;;;;;18.00;17.25;;;;;;;;5034418;28;45522;-67
2022/05/19 06:45:11;;;;;;;;;19.00;17.75;;;;;;;;5034142;28;45444;-67
2022/05/19 06:47:36;;;;;;;;;14.50;14.50;;;;;;;;5033753;28;45778;-67
2022/05/19 06:50:04;;;;;;;;;19.75;19.75;;;;;;;;5034045;28;45436;-66
2022/05/19 06:52:30;;;;;;;;;18.75;18.25;;;;;;;;5036238;28;45445;-66
2022/05/19 06:54:57;;;;;;;;;16.25;15.75;;;;;;;;5034052;28;45337;-66
2022/05/19 06:57:24;;;;;;;;;16.25;16.25;;;;;;;;5032161;28;48648;-66
2022/05/19 06:59:49;;;;;;;;;16.75;16.25;;;;;;;;5033719;28;45358;-66
2022/05/19 07:02:16;;;;;;;;;19.75;16.50;;;;;;;;5033778;28;45474;-67
2022/05/19 07:04:41;;;;;;;;;16.50;16.50;;;;;;;;5035377;28;45327;-67
2022/05/19 07:07:06;;;;;;;;;14.75;14.75;;;;;;;;5035355;28;46221;-67
2022/05/19 07:09:32;;;;;;;;;15.75;15.00;;;;;;;;5033372;28;45465;-67
2022/05/19 07:11:59;;;;;;;;;11.50;10.00;;;;;;;;5032215;28;45764;-67
2022/05/19 07:14:24;;;;;;;;;15.00;13.25;;;;;;;;5033914;28;45488;-66
2022/05/19 07:16:49;;;;;;;;;21.25;18.75;;;;;;;;5033605;28;45516;-66
2022/05/19 07:21:58;;;;;;;;;15.25;15.25;;;;;;;;5033662;28;45428;-67
2022/05/19 07:24:24;;;;;;;;;15.25;15.25;;;;;;;;5029462;28;45434;-67
2022/05/19 07:26:50;;;;;;;;;15.25;14.75;;;;;;;;5023845;28;45498;-67
2022/05/19 07:29:16;;;;;;;;;20.25;16.75;;;;;;;;5032264;28;45431;-67
2022/05/19 07:31:42;;;;;;;;;18.75;16.75;;;;;;;;5034629;28;45469;-68
2022/05/19 07:34:08;;;;;;;;;15.00;15.00;;;;;;;;5034465;28;45488;-67
2022/05/19 07:36:34;;;;;;;;;18.25;15.00;;;;;;;;5032064;28;45304;-67
2022/05/19 07:39:00;;;;;;;;;17.00;15.25;;;;;;;;5032451;28;45489;-68
2022/05/19 07:41:26;;;;;;;;;22.25;20.75;;;;;;;;5033529;28;45448;-68
2022/05/19 07:43:52;;;;;;;;;24.25;21.00;;;;;;;;5033288;28;45294;-67
2022/05/19 07:46:18;;;;;;;;;24.50;19.00;;;;;;;;5035266;28;45552;-68
2022/05/19 07:48:43;;;;;;;;;20.50;20.50;;;;;;;;5033118;28;45671;-67
2022/05/19 07:51:09;;;;;;;;;12.25;12.25;;;;;;;;5033242;28;45530;-67
2022/05/19 07:53:34;;;;;;;;;17.75;16.75;;;;;;;;5032118;28;45488;-67
2022/05/19 07:55:59;;;;;;;;;19.50;18.75;;;;;;;;5031759;28;47265;-67
2022/05/19 07:58:24;;;;;;;;;14.00;14.00;;;;;;;;5035206;28;45341;-66
2022/05/19 08:00:51;;;;;;;;;17.00;15.75;;;;;;;;5028830;28;45536;-67
2022/05/19 08:03:16;;;;;;;;;12.75;12.75;;;;;;;;5026303;28;45689;-66
2022/05/19 08:05:42;;;;;;;;;19.50;18.00;;;;;;;;5032748;28;45604;-66
2022/05/19 08:08:07;;;;;;;;;15.25;15.25;;;;;;;;5032710;28;45471;-66
2022/05/19 08:10:32;;;;;;;;;15.50;15.50;;;;;;;;5034865;28;45383;-66
2022/05/19 08:15:43;;;;;;;;;15.25;15.25;;;;;;;;5031019;28;45817;-67
2022/05/19 08:18:08;;;;;;;;;13.25;11.75;;;;;;;;5030254;28;45826;-66
2022/05/19 08:20:34;;;;;;;;;15.25;13.50;;;;;;;;5031203;28;45591;-67
2022/05/19 08:23:00;;;;;;;;;14.00;11.25;;;;;;;;5032841;28;45604;-66
2022/05/19 08:25:26;;;;;;;;;12.50;11.50;;;;;;;;5033308;28;47715;-67
2022/05/19 08:27:52;;;;;;;;;11.75;11.00;;;;;;;;5030732;28;45445;-66
2022/05/19 08:30:18;;;;;;;;;11.50;8.50;;;;;;;;5031823;28;45568;-66
2022/05/19 08:32:43;;;;;;;;;12.25;10.75;;;;;;;;5032292;28;45504;-67
2022/05/19 08:35:09;;;;;;;;;11.75;11.75;;;;;;;;5030507;28;48275;-67
2022/05/19 08:37:34;;;;;;;;;9.25;7.75;;;;;;;;5034859;28;45293;-68
2022/05/19 08:39:59;;;;;;;;;10.00;10.00;;;;;;;;5032132;28;45600;-68
2022/05/19 08:42:26;;;;;;;;;9.25;9.25;;;;;;;;5032608;28;45438;-68
2022/05/19 08:44:54;;;;;;;;;8.00;7.50;;;;;;;;5031932;28;46558;-68
2022/05/19 08:47:24;;;;;;;;;10.25;9.25;;;;;;;;5031993;28;45614;-68
2022/05/19 08:49:49;;;;;;;;;7.00;6.00;;;;;;;;5015351;28;45331;-68
2022/05/19 08:52:16;;;;;;;;;5.00;5.00;;;;;;;;5031037;28;45536;-68
2022/05/19 08:54:43;;;;;;;;;5.75;5.75;;;;;;;;5028782;28;45678;-68
2022/05/19 08:57:16;;;;;;;;;8.75;7.75;;;;;;;;5031286;28;45563;-68
2022/05/19 08:59:52;;;;;;;;;7.00;5.00;;;;;;;;5032116;28;45424;-68
2022/05/19 09:02:23;;;;;;;;;7.50;6.50;;;;;;;;5032174;28;45389;-67
2022/05/19 09:04:55;;;;;;;;;4.00;4.00;;;;;;;;5032559;28;46634;-68
2022/05/19 09:10:38;;;;;;;;;9.25;7.75;;;;;;;;5031998;28;45365;-68
2022/05/19 09:13:22;;;;;;;;;9.50;9.50;;;;;;;;5030882;28;45397;-65
2022/05/19 09:15:47;;;;;;;;;11.25;11.25;;;;;;;;5031262;28;45377;-68
2022/05/19 09:18:14;;;;;;;;;13.50;13.00;;;;;;;;5031629;28;47720;-68
2022/05/19 09:20:51;;;;;;;;;11.00;10.75;;;;;;;;5032053;28;45481;-69
2022/05/19 09:23:17;;;;;;;;;15.50;15.50;;;;;;;;5031309;28;45710;-68
2022/05/19 09:25:46;;;;;;;;;20.50;16.00;;;;;;;;5032972;28;45595;-68
2022/05/19 09:28:12;;;;;;;;;15.50;14.50;;;;;;;;5033292;28;45338;-67
2022/05/19 09:30:41;;;;;;;;;17.25;16.25;;;;;;;;5031143;28;47661;-68
2022/05/19 09:33:08;;;;;;;;;13.00;12.00;;;;;;;;5030325;28;45474;-68
2022/05/19 09:35:37;;;;;;;;;9.50;9.00;;;;;;;;5031799;28;46367;-67
2022/05/19 09:38:12;;;;;;;;;9.25;7.75;;;;;;;;5031445;28;45361;-68
2022/05/19 09:40:38;;;;;;;;;10.75;9.25;;;;;;;;5033480;28;45746;-68
2022/05/19 09:43:09;;;;;;;;;10.00;9.00;;;;;;;;5030689;28;45537;-69
2022/05/19 09:45:40;;;;;;;;;9.00;7.75;;;;;;;;5026582;28;46597;-68
2022/05/19 09:48:07;;;;;;;;;5.25;5.25;;;;;;;;5022716;28;45620;-67
2022/05/19 09:50:37;;;;;;;;;4.75;4.25;;;;;;;;5031989;28;45545;-67
2022/05/19 09:53:11;;;;;;;;;5.75;5.75;;;;;;;;5031875;28;45779;-67
2022/05/19 09:55:39;;;;;;;;;5.00;5.00;;;;;;;;5029413;28;47675;-67
2022/05/19 09:58:07;;;;;;;;;4.00;4.00;;;;;;;;5029489;28;45530;-67
2022/05/19 10:00:46;;;;;;;;;4.25;3.25;;;;;;;;5027214;28;45685;-68
2022/05/19 10:03:22;;;;;;;;;4.00;4.00;;;;;;;;5030213;28;45457;-67
2022/05/19 10:05:49;;;;;;;;;2.75;2.75;;;;;;;;5034547;28;45594;-66
2022/05/19 10:08:33;;;;;;;;;4.50;4.50;;;;;;;;5034786;28;45652;-66
2022/05/19 10:11:03;;;;;;;;;1.75;1.75;;;;;;;;5034916;28;45358;-67
2022/05/19 10:13:43;;;;;;;;;3.75;3.75;;;;;;;;5036693;28;45321;-67
2022/05/19 10:16:12;;;;;;;;;2.00;2.00;;;;;;;;5036527;28;48843;-67
2022/05/19 10:18:40;;;;;;;;;0.00;0.00;;;;;;;;5034622;28;45816;-67
2022/05/19 10:21:15;;;;;;;;;2.75;1.25;;;;;;;;5034634;28;45455;-68
2022/05/19 10:23:41;;;;;;;;;2.00;1.00;;;;;;;;5030684;28;45616;-67
2022/05/19 10:26:21;;;;;;;;;0.75;0.75;;;;;;;;5035058;28;46328;-67
2022/05/19 10:31:37;;;;;;;;;1.25;1.25;;;;;;;;5042492;28;45527;-67
2022/05/19 10:34:15;;;;;;;;;1.00;1.00;;;;;;;;5048833;28;45889;-67
2022/05/19 10:36:43;;;;;;;;;1.00;1.00;;;;;;;;5060865;27;46572;-67
2022/05/19 10:39:20;;;;;;;;;1.00;1.00;;;;;;;;5042683;28;46454;-66
2022/05/19 10:41:53;;;;;;;;;0.33;0.33;;;;;;;;5035449;28;45473;-67
2022/05/19 10:44:19;;;;;;;;;0.25;0.25;;;;;;;;5044586;28;45537;-67
2022/05/19 10:46:44;;;;;;;;;1.00;1.00;;;;;;;;5040182;28;46095;-67
2022/05/19 10:49:09;;;;;;;;;1.00;1.00;;;;;;;;5039845;28;46516;-66
2022/05/19 10:51:37;;;;;;;;;3.00;2.00;;;;;;;;5040201;28;45311;-67
2022/05/19 10:54:18;;;;;;;;;1.25;1.25;;;;;;;;5033863;28;45416;-67
2022/05/19 10:56:58;;;;;;;;;1.50;1.50;;;;;;;;5022608;28;48437;-67
2022/05/19 10:59:26;;;;;;;;;0.00;0.00;;;;;;;;5035405;28;45527;-67
2022/05/19 11:02:00;;;;;;;;;1.25;1.25;;;;;;;;5045648;28;45456;-66
2022/05/19 11:04:28;;;;;;;;;1.00;1.00;;;;;;;;5036736;28;45437;-67
2022/05/19 11:06:53;;;;;;;;;1.00;1.00;;;;;;;;5038782;28;46753;-67
2022/05/19 11:09:28;;;;;;;;;2.00;2.00;;;;;;;;5041354;28;45523;-67
2022/05/19 11:12:02;;;;;;;;;1.00;1.00;;;;;;;;5031978;28;45646;-67
2022/05/19 11:14:30;;;;;;;;;1.00;1.00;;;;;;;;5042789;28;45936;-67
2022/05/19 11:17:04;;;;;;;;;1.75;1.50;;;;;;;;5034252;28;47159;-67
2022/05/19 11:19:29;;;;;;;;;2.25;2.25;;;;;;;;5045517;28;45808;-67
2022/05/19 11:22:04;;;;;;;;;1.00;1.00;;;;;;;;5035731;28;45847;-67
2022/05/19 11:24:35;;;;;;;;;1.50;1.00;;;;;;;;5036976;28;45507;-67
2022/05/19 11:27:07;;;;;;;;;1.00;1.00;;;;;;;;5043657;28;46043;-67
2022/05/19 11:29:47;;;;;;;;;1.75;1.75;;;;;;;;5030757;28;46068;-67
2022/05/19 11:32:16;;;;;;;;;2.00;2.00;;;;;;;;5042536;28;45575;-68
2022/05/19 11:35:03;;;;;;;;;0.00;0.00;;;;;;;;5033284;28;45566;-67
2022/05/19 11:37:47;;;;;;;;;0.25;0.25;;;;;;;;5040635;28;45894;-67
2022/05/19 11:40:25;;;;;;;;;1.00;1.00;;;;;;;;5037108;28;45480;-67
2022/05/19 11:42:50;;;;;;;;;1.00;1.00;;;;;;;;5045503;28;45492;-67
2022/05/19 11:45:18;;;;;;;;;0.33;0.00;;;;;;;;5041435;28;45345;-66
2022/05/19 11:56:03;;;;;;;;;0.25;0.25;;;;;;;;5043507;28;45913;-66
2022/05/19 11:58:31;;;;;;;;;1.50;1.50;;;;;;;;5037874;28;45557;-67
2022/05/19 12:00:57;;;;;;;;;2.00;1.00;;;;;;;;5033212;28;45421;-67
2022/05/19 12:03:26;;;;;;;;;1.75;1.00;;;;;;;;5039749;28;45552;-67
2022/05/19 12:06:03;;;;;;;;;0.00;0.00;;;;;;;;5034301;28;45481;-67
2022/05/19 12:08:28;;;;;;;;;0.75;0.75;;;;;;;;5038133;28;47523;-68
2022/05/19 12:10:56;;;;;;;;;1.00;1.00;;;;;;;;5031409;28;45874;-67
2022/05/19 12:13:30;;;;;;;;;0.00;0.00;;;;;;;;5031097;28;45524;-68
2022/05/19 12:15:57;;;;;;;;;1.00;1.00;;;;;;;;5033447;28;45386;-67
2022/05/19 12:18:22;;;;;;;;;1.00;1.00;;;;;;;;5028971;28;45796;-67
2022/05/19 12:20:47;;;;;;;;;0.00;0.00;;;;;;;;5032738;28;45292;-66
2022/05/19 12:23:19;;;;;;;;;1.00;1.00;;;;;;;;5032662;28;45616;-67
2022/05/19 12:25:49;;;;;;;;;1.00;1.00;;;;;;;;5032998;28;45871;-66
2022/05/19 12:28:20;;;;;;;;;1.00;1.00;;;;;;;;5033920;28;45825;-67
2022/05/19 12:33:36;;;;;;;;;1.00;1.00;;;;;;;;5032040;28;45455;-66
2022/05/19 12:36:07;;;;;;;;;0.50;0.50;;;;;;;;5032623;28;45381;-66
2022/05/19 12:38:34;;;;;;;;;3.25;2.00;;;;;;;;5030860;28;46704;-67
2022/05/19 12:41:04;;;;;;;;;1.00;1.00;;;;;;;;5032290;28;45502;-66
2022/05/19 12:43:40;;;;;;;;;1.00;1.00;;;;;;;;5034160;28;45416;-67
2022/05/19 12:46:10;;;;;;;;;1.00;1.00;;;;;;;;5033742;28;45358;-66
2022/05/19 12:48:36;;;;;;;;;1.00;1.00;;;;;;;;5030845;28;45526;-66
2022/05/19 12:51:15;;;;;;;;;1.00;1.00;;;;;;;;5031087;28;45878;-66
2022/05/19 12:53:50;;;;;;;;;1.00;1.00;;;;;;;;5032007;28;45369;-66
2022/05/19 12:56:34;;;;;;;;;0.50;0.50;;;;;;;;5031129;28;45433;-65
2022/05/19 12:59:01;;;;;;;;;1.25;0.25;;;;;;;;5032189;28;46559;-66
2022/05/19 13:01:31;;;;;;;;;1.00;1.00;;;;;;;;5034111;28;45417;-66
2022/05/19 13:04:03;;;;;;;;;1.00;1.00;;;;;;;;5027410;28;45672;-66
2022/05/19 13:06:30;;;;;;;;;0.50;0.50;;;;;;;;5023139;28;45633;-65
2022/05/19 13:08:56;;;;;;;;;1.00;1.00;;;;;;;;5020272;28;46181;-66
2022/05/19 13:11:24;;;;;;;;;2.00;2.00;;;;;;;;5030302;28;45385;-66
2022/05/19 13:13:56;;;;;;;;;0.50;0.50;;;;;;;;5030097;28;45434;-67
2022/05/19 13:16:27;;;;;;;;;1.50;1.50;;;;;;;;5032583;28;45449;-68
2022/05/19 13:18:54;;;;;;;;;1.00;1.00;;;;;;;;5031740;28;46777;-67
2022/05/19 13:21:34;;;;;;;;;1.00;1.00;;;;;;;;5029824;28;45401;-66
2022/05/19 13:24:06;;;;;;;;;2.50;1.00;;;;;;;;5030551;28;45563;-66
2022/05/19 13:26:31;;;;;;;;;1.00;1.00;;;;;;;;5031023;28;45401;-66
2022/05/19 13:32:14;;;;;;;;;1.75;1.75;;;;;;;;5030100;28;45377;-66
2022/05/19 13:34:40;;;;;;;;;1.00;1.00;;;;;;;;5033802;28;45704;-67
2022/05/19 13:37:06;;;;;;;;;2.75;1.50;;;;;;;;5031087;28;45401;-66
2022/05/19 13:39:32;;;;;;;;;1.50;1.50;;;;;;;;5034772;28;45504;-67
2022/05/19 13:42:12;;;;;;;;;1.75;1.75;;;;;;;;5034898;28;45409;-67
2022/05/19 13:44:39;;;;;;;;;1.00;1.00;;;;;;;;5034981;28;45421;-67
2022/05/19 13:47:10;;;;;;;;;1.00;1.00;;;;;;;;5035070;28;45490;-67
2022/05/19 13:49:35;;;;;;;;;2.00;1.00;;;;;;;;5033294;28;46581;-65
2022/05/19 13:52:06;;;;;;;;;1.75;1.00;;;;;;;;5033301;28;45417;-67
2022/05/19 13:54:40;;;;;;;;;1.00;1.00;;;;;;;;5035248;28;45504;-67
2022/05/19 13:57:07;;;;;;;;;2.25;2.00;;;;;;;;5034984;28;45365;-67
2022/05/19 13:59:32;;;;;;;;;2.00;1.00;;;;;;;;5034429;28;46673;-67
2022/05/19 14:02:06;;;;;;;;;2.00;2.00;;;;;;;;5034436;28;45525;-67
2022/05/19 14:04:33;;;;;;;;;2.00;2.00;;;;;;;;5036928;28;45323;-66
2022/05/19 14:06:58;;;;;;;;;1.25;1.25;;;;;;;;5033455;28;45311;-67
2022/05/19 14:09:24;;;;;;;;;1.00;1.00;;;;;;;;5034609;28;46415;-67
2022/05/19 14:12:08;;;;;;;;;3.00;3.00;;;;;;;;5033472;28;45572;-67
2022/05/19 14:14:34;;;;;;;;;2.50;2.50;;;;;;;;5034806;28;45629;-67
2022/05/19 14:16:59;;;;;;;;;3.00;3.00;;;;;;;;5047934;28;45547;-67
2022/05/19 14:19:36;;;;;;;;;1.00;1.00;;;;;;;;5046808;28;48400;-68
2022/05/19 14:22:02;;;;;;;;;2.00;2.00;;;;;;;;5031919;28;46187;-67
2022/05/19 14:24:27;;;;;;;;;2.00;2.00;;;;;;;;5032883;28;45934;-67
2022/05/19 14:26:54;;;;;;;;;2.00;2.00;;;;;;;;5034578;28;45518;-67
2022/05/19 14:29:20;;;;;;;;;2.00;2.00;;;;;;;;5033226;28;47487;-67
2022/05/19 14:31:46;;;;;;;;;2.50;2.00;;;;;;;;5033319;28;46208;-67
2022/05/19 14:34:21;;;;;;;;;2.25;2.25;;;;;;;;5034143;28;45620;-67
2022/05/19 14:36:54;;;;;;;;;2.00;2.00;;;;;;;;5034593;28;45509;-67
2022/05/19 14:39:23;;;;;;;;;1.50;1.50;;;;;;;;5033732;28;45705;-67
2022/05/19 14:44:41;;;;;;;;;1.25;1.25;;;;;;;;5033245;28;45682;-66
2022/05/19 14:47:20;;;;;;;;;2.25;2.25;;;;;;;;5034085;28;45504;-67
2022/05/19 14:49:53;;;;;;;;;2.50;2.50;;;;;;;;5048755;28;47420;-67
2022/05/19 14:52:26;;;;;;;;;2.00;1.25;;;;;;;;5035291;28;45545;-66
2022/05/19 14:54:53;;;;;;;;;3.00;3.00;;;;;;;;5047311;28;45552;-67
2022/05/19 14:57:20;;;;;;;;;2.00;2.00;;;;;;;;5047381;28;45463;-67
2022/05/19 14:59:46;;;;;;;;;1.00;1.00;;;;;;;;5035444;28;47444;-67
2022/05/19 15:02:11;;;;;;;;;1.75;1.75;;;;;;;;5018841;28;46406;-66
2022/05/19 15:04:36;;;;;;;;;3.00;2.00;;;;;;;;5037896;28;45789;-66